sensor_id;sensor_type;location;lat;lon;timestamp;P1;durP1;ratioP1;P2;durP2;ratioP2
32347;SDS011;18821;44.800;10.326;2023-03-01T00:01:13;44.50;;;23.48;;
32347;SDS011;18821;44.800;10.326;2023-03-01T00:03:45;46.55;;;25.10;;
32347;SDS011;18821;44.800;10.326;2023-03-01T00:06:11;40.70;;;22.30;;
32347;SDS011;18821;44.800;10.326;2023-03-01T00:08:38;46.15;;;20.92;;
32347;SDS011;18821;44.800;10.326;2023-03-01T00:11:09;33.10;;;18.55;;
32347;SDS011;18821;44.800;10.326;2023-03-01T00:13:38;35.00;;;19.65;;
32347;SDS011;18821;44.800;10.326;2023-03-01T00:16:05;39.42;;;19.95;;
32347;SDS011;18821;44.800;10.326;2023-03-01T00:18:32;36.35;;;18.88;;
32347;SDS011;18821;44.800;10.326;2023-03-01T00:20:59;35.10;;;18.15;;
32347;SDS011;18821;44.800;10.326;2023-03-01T00:23:25;30.80;;;15.88;;
32347;SDS011;18821;44.800;10.326;2023-03-01T00:25:51;30.13;;;17.15;;
32347;SDS011;18821;44.800;10.326;2023-03-01T00:28:18;32.17;;;16.10;;
32347;SDS011;18821;44.800;10.326;2023-03-01T00:30:45;26.75;;;15.85;;
32347;SDS011;18821;44.800;10.326;2023-03-01T00:33:12;29.67;;;15.80;;
32347;SDS011;18821;44.800;10.326;2023-03-01T00:35:38;27.67;;;14.65;;
32347;SDS011;18821;44.800;10.326;2023-03-01T00:38:04;28.45;;;14.50;;
32347;SDS011;18821;44.800;10.326;2023-03-01T00:40:31;27.17;;;15.18;;
32347;SDS011;18821;44.800;10.326;2023-03-01T00:42:59;26.83;;;14.75;;
32347;SDS011;18821;44.800;10.326;2023-03-01T00:45:26;24.80;;;13.70;;
32347;SDS011;18821;44.800;10.326;2023-03-01T00:47:53;30.77;;;15.25;;
32347;SDS011;18821;44.800;10.326;2023-03-01T00:50:19;28.63;;;15.18;;
32347;SDS011;18821;44.800;10.326;2023-03-01T00:52:45;34.03;;;15.32;;
32347;SDS011;18821;44.800;10.326;2023-03-01T00:55:12;26.80;;;15.05;;
32347;SDS011;18821;44.800;10.326;2023-03-01T00:57:38;29.38;;;15.30;;
32347;SDS011;18821;44.800;10.326;2023-03-01T01:00:05;27.35;;;14.65;;
32347;SDS011;18821;44.800;10.326;2023-03-01T01:02:33;36.25;;;14.90;;
32347;SDS011;18821;44.800;10.326;2023-03-01T01:04:59;30.05;;;15.60;;
32347;SDS011;18821;44.800;10.326;2023-03-01T01:07:25;25.30;;;14.45;;
32347;SDS011;18821;44.800;10.326;2023-03-01T01:09:51;33.17;;;15.23;;
32347;SDS011;18821;44.800;10.326;2023-03-01T01:12:17;30.50;;;14.88;;
32347;SDS011;18821;44.800;10.326;2023-03-01T01:14:43;32.22;;;14.55;;
32347;SDS011;18821;44.800;10.326;2023-03-01T01:17:09;23.45;;;14.00;;
32347;SDS011;18821;44.800;10.326;2023-03-01T01:19:35;29.80;;;14.13;;
32347;SDS011;18821;44.800;10.326;2023-03-01T01:22:02;33.83;;;15.57;;
32347;SDS011;18821;44.800;10.326;2023-03-01T01:24:28;26.90;;;14.57;;
32347;SDS011;18821;44.800;10.326;2023-03-01T01:26:55;29.80;;;14.02;;
32347;SDS011;18821;44.800;10.326;2023-03-01T01:29:21;28.60;;;14.85;;
32347;SDS011;18821;44.800;10.326;2023-03-01T01:31:47;27.92;;;14.73;;
32347;SDS011;18821;44.800;10.326;2023-03-01T01:34:15;29.33;;;15.00;;
32347;SDS011;18821;44.800;10.326;2023-03-01T01:36:42;25.50;;;14.10;;
32347;SDS011;18821;44.800;10.326;2023-03-01T01:39:09;26.83;;;14.85;;
32347;SDS011;18821;44.800;10.326;2023-03-01T01:41:39;32.95;;;15.82;;
32347;SDS011;18821;44.800;10.326;2023-03-01T01:44:20;29.73;;;14.93;;
32347;SDS011;18821;44.800;10.326;2023-03-01T01:49:25;25.38;;;14.55;;
32347;SDS011;18821;44.800;10.326;2023-03-01T01:54:48;28.23;;;14.95;;
32347;SDS011;18821;44.800;10.326;2023-03-01T01:57:28;25.30;;;13.82;;
32347;SDS011;18821;44.800;10.326;2023-03-01T02:00:04;25.10;;;14.20;;
32347;SDS011;18821;44.800;10.326;2023-03-01T02:02:42;26.42;;;14.10;;
32347;SDS011;18821;44.800;10.326;2023-03-01T02:07:45;28.05;;;14.20;;
32347;SDS011;18821;44.800;10.326;2023-03-01T02:10:13;30.67;;;15.18;;
32347;SDS011;18821;44.800;10.326;2023-03-01T02:12:39;29.75;;;13.82;;
32347;SDS011;18821;44.800;10.326;2023-03-01T02:15:05;27.92;;;14.63;;
32347;SDS011;18821;44.800;10.326;2023-03-01T02:17:31;29.45;;;14.52;;
32347;SDS011;18821;44.800;10.326;2023-03-01T02:20:09;26.25;;;14.88;;
32347;SDS011;18821;44.800;10.326;2023-03-01T02:23:02;31.63;;;15.32;;
32347;SDS011;18821;44.800;10.326;2023-03-01T02:25:44;31.30;;;15.57;;
32347;SDS011;18821;44.800;10.326;2023-03-01T02:28:33;28.33;;;14.80;;
32347;SDS011;18821;44.800;10.326;2023-03-01T02:31:04;28.75;;;14.50;;
32347;SDS011;18821;44.800;10.326;2023-03-01T02:33:51;27.42;;;15.07;;
32347;SDS011;18821;44.800;10.326;2023-03-01T02:36:19;30.38;;;14.95;;
32347;SDS011;18821;44.800;10.326;2023-03-01T02:38:49;27.35;;;14.55;;
32347;SDS011;18821;44.800;10.326;2023-03-01T02:41:17;26.40;;;13.65;;
32347;SDS011;18821;44.800;10.326;2023-03-01T02:43:45;32.42;;;16.15;;
32347;SDS011;18821;44.800;10.326;2023-03-01T02:46:19;32.97;;;15.75;;
32347;SDS011;18821;44.800;10.326;2023-03-01T02:48:48;30.65;;;14.75;;
32347;SDS011;18821;44.800;10.326;2023-03-01T02:56:53;32.38;;;15.15;;
32347;SDS011;18821;44.800;10.326;2023-03-01T02:59:22;31.23;;;15.20;;
32347;SDS011;18821;44.800;10.326;2023-03-01T03:01:53;26.08;;;15.43;;
32347;SDS011;18821;44.800;10.326;2023-03-01T03:04:19;34.22;;;16.35;;
32347;SDS011;18821;44.800;10.326;2023-03-01T03:06:48;33.58;;;16.88;;
32347;SDS011;18821;44.800;10.326;2023-03-01T03:09:16;34.88;;;16.08;;
32347;SDS011;18821;44.800;10.326;2023-03-01T03:11:43;34.70;;;15.48;;
32347;SDS011;18821;44.800;10.326;2023-03-01T03:14:10;31.35;;;16.27;;
32347;SDS011;18821;44.800;10.326;2023-03-01T03:16:44;29.70;;;16.43;;
32347;SDS011;18821;44.800;10.326;2023-03-01T03:19:12;29.17;;;15.77;;
32347;SDS011;18821;44.800;10.326;2023-03-01T03:21:38;29.88;;;15.38;;
32347;SDS011;18821;44.800;10.326;2023-03-01T03:24:04;29.73;;;15.85;;
32347;SDS011;18821;44.800;10.326;2023-03-01T03:26:31;31.35;;;15.73;;
32347;SDS011;18821;44.800;10.326;2023-03-01T03:28:57;31.10;;;16.00;;
32347;SDS011;18821;44.800;10.326;2023-03-01T03:31:23;31.10;;;16.65;;
32347;SDS011;18821;44.800;10.326;2023-03-01T03:33:49;31.85;;;14.25;;
32347;SDS011;18821;44.800;10.326;2023-03-01T03:36:16;29.10;;;16.88;;
32347;SDS011;18821;44.800;10.326;2023-03-01T03:38:43;29.88;;;16.30;;
32347;SDS011;18821;44.800;10.326;2023-03-01T03:41:10;28.38;;;15.57;;
32347;SDS011;18821;44.800;10.326;2023-03-01T03:43:38;26.38;;;14.93;;
32347;SDS011;18821;44.800;10.326;2023-03-01T03:46:05;32.22;;;16.98;;
32347;SDS011;18821;44.800;10.326;2023-03-01T03:48:36;35.92;;;16.58;;
32347;SDS011;18821;44.800;10.326;2023-03-01T03:51:09;29.10;;;16.92;;
32347;SDS011;18821;44.800;10.326;2023-03-01T03:53:40;29.75;;;15.45;;
32347;SDS011;18821;44.800;10.326;2023-03-01T03:56:06;27.08;;;15.70;;
32347;SDS011;18821;44.800;10.326;2023-03-01T03:58:32;28.92;;;15.18;;
32347;SDS011;18821;44.800;10.326;2023-03-01T04:00:59;31.25;;;16.48;;
32347;SDS011;18821;44.800;10.326;2023-03-01T04:03:29;32.28;;;15.48;;
32347;SDS011;18821;44.800;10.326;2023-03-01T04:05:57;30.35;;;14.55;;
32347;SDS011;18821;44.800;10.326;2023-03-01T04:08:26;30.15;;;14.90;;
32347;SDS011;18821;44.800;10.326;2023-03-01T04:10:57;27.98;;;14.25;;
32347;SDS011;18821;44.800;10.326;2023-03-01T04:13:25;26.88;;;14.18;;
32347;SDS011;18821;44.800;10.326;2023-03-01T04:15:52;27.83;;;13.65;;
32347;SDS011;18821;44.800;10.326;2023-03-01T04:18:20;28.42;;;14.20;;
32347;SDS011;18821;44.800;10.326;2023-03-01T04:20:48;27.80;;;14.63;;
32347;SDS011;18821;44.800;10.326;2023-03-01T04:23:15;29.10;;;14.75;;
32347;SDS011;18821;44.800;10.326;2023-03-01T04:30:55;26.58;;;13.75;;
32347;SDS011;18821;44.800;10.326;2023-03-01T04:33:23;30.02;;;15.05;;
32347;SDS011;18821;44.800;10.326;2023-03-01T04:35:50;29.45;;;16.40;;
32347;SDS011;18821;44.800;10.326;2023-03-01T04:38:16;28.35;;;15.40;;
32347;SDS011;18821;44.800;10.326;2023-03-01T04:40:43;27.15;;;14.80;;
32347;SDS011;18821;44.800;10.326;2023-03-01T04:43:09;27.80;;;15.35;;
32347;SDS011;18821;44.800;10.326;2023-03-01T04:45:36;26.70;;;14.52;;
32347;SDS011;18821;44.800;10.326;2023-03-01T04:48:03;33.83;;;15.05;;
32347;SDS011;18821;44.800;10.326;2023-03-01T04:50:29;27.00;;;14.80;;
32347;SDS011;18821;44.800;10.326;2023-03-01T04:52:55;29.45;;;15.88;;
32347;SDS011;18821;44.800;10.326;2023-03-01T04:55:25;30.98;;;15.48;;
32347;SDS011;18821;44.800;10.326;2023-03-01T04:57:52;31.40;;;15.50;;
32347;SDS011;18821;44.800;10.326;2023-03-01T05:00:19;26.77;;;13.95;;
32347;SDS011;18821;44.800;10.326;2023-03-01T05:02:51;28.90;;;15.35;;
32347;SDS011;18821;44.800;10.326;2023-03-01T05:05:20;26.05;;;13.82;;
32347;SDS011;18821;44.800;10.326;2023-03-01T05:08:07;27.95;;;14.80;;
32347;SDS011;18821;44.800;10.326;2023-03-01T05:10:34;32.50;;;14.43;;
32347;SDS011;18821;44.800;10.326;2023-03-01T05:13:02;32.22;;;15.70;;
32347;SDS011;18821;44.800;10.326;2023-03-01T05:15:30;28.90;;;15.25;;
32347;SDS011;18821;44.800;10.326;2023-03-01T05:17:57;27.92;;;15.25;;
32347;SDS011;18821;44.800;10.326;2023-03-01T05:20:25;30.65;;;16.80;;
32347;SDS011;18821;44.800;10.326;2023-03-01T05:22:54;32.42;;;16.15;;
32347;SDS011;18821;44.800;10.326;2023-03-01T05:25:21;35.67;;;16.23;;
32347;SDS011;18821;44.800;10.326;2023-03-01T05:27:47;31.15;;;16.30;;
32347;SDS011;18821;44.800;10.326;2023-03-01T05:30:13;36.83;;;18.52;;
32347;SDS011;18821;44.800;10.326;2023-03-01T05:32:41;30.70;;;17.30;;
32347;SDS011;18821;44.800;10.326;2023-03-01T05:35:15;29.88;;;17.10;;
32347;SDS011;18821;44.800;10.326;2023-03-01T05:37:43;30.70;;;16.55;;
32347;SDS011;18821;44.800;10.326;2023-03-01T05:40:11;31.85;;;17.60;;
32347;SDS011;18821;44.800;10.326;2023-03-01T05:42:41;37.38;;;16.80;;
32347;SDS011;18821;44.800;10.326;2023-03-01T05:45:08;34.88;;;17.25;;
32347;SDS011;18821;44.800;10.326;2023-03-01T05:47:35;36.17;;;17.85;;
32347;SDS011;18821;44.800;10.326;2023-03-01T05:50:01;35.78;;;17.15;;
32347;SDS011;18821;44.800;10.326;2023-03-01T05:52:27;37.42;;;17.38;;
32347;SDS011;18821;44.800;10.326;2023-03-01T05:54:54;38.00;;;16.95;;
32347;SDS011;18821;44.800;10.326;2023-03-01T05:57:20;35.63;;;18.30;;
32347;SDS011;18821;44.800;10.326;2023-03-01T05:59:46;29.98;;;16.65;;
32347;SDS011;18821;44.800;10.326;2023-03-01T06:02:13;38.33;;;17.73;;
32347;SDS011;18821;44.800;10.326;2023-03-01T06:04:39;37.95;;;18.80;;
32347;SDS011;18821;44.800;10.326;2023-03-01T06:07:05;35.47;;;17.98;;
32347;SDS011;18821;44.800;10.326;2023-03-01T06:09:31;35.67;;;16.95;;
32347;SDS011;18821;44.800;10.326;2023-03-01T06:11:57;34.53;;;18.30;;
32347;SDS011;18821;44.800;10.326;2023-03-01T06:14:23;34.55;;;17.85;;
32347;SDS011;18821;44.800;10.326;2023-03-01T06:16:49;37.83;;;19.05;;
32347;SDS011;18821;44.800;10.326;2023-03-01T06:19:15;38.38;;;18.20;;
32347;SDS011;18821;44.800;10.326;2023-03-01T06:21:41;44.28;;;20.83;;
32347;SDS011;18821;44.800;10.326;2023-03-01T06:24:07;35.88;;;17.83;;
32347;SDS011;18821;44.800;10.326;2023-03-01T06:26:33;49.33;;;20.13;;
32347;SDS011;18821;44.800;10.326;2023-03-01T06:28:59;37.85;;;17.73;;
32347;SDS011;18821;44.800;10.326;2023-03-01T06:31:25;35.38;;;17.50;;
32347;SDS011;18821;44.800;10.326;2023-03-01T06:33:51;32.35;;;16.90;;
32347;SDS011;18821;44.800;10.326;2023-03-01T06:36:17;32.63;;;16.98;;
32347;SDS011;18821;44.800;10.326;2023-03-01T06:38:46;32.75;;;17.20;;
32347;SDS011;18821;44.800;10.326;2023-03-01T06:41:12;39.85;;;18.70;;
32347;SDS011;18821;44.800;10.326;2023-03-01T06:43:38;41.75;;;18.70;;
32347;SDS011;18821;44.800;10.326;2023-03-01T06:46:04;33.10;;;18.52;;
32347;SDS011;18821;44.800;10.326;2023-03-01T06:48:32;37.33;;;18.20;;
32347;SDS011;18821;44.800;10.326;2023-03-01T06:51:00;40.13;;;19.55;;
32347;SDS011;18821;44.800;10.326;2023-03-01T06:53:27;35.30;;;18.15;;
32347;SDS011;18821;44.800;10.326;2023-03-01T06:55:54;40.65;;;18.42;;
32347;SDS011;18821;44.800;10.326;2023-03-01T06:58:21;42.70;;;19.38;;
32347;SDS011;18821;44.800;10.326;2023-03-01T07:00:48;33.08;;;16.50;;
32347;SDS011;18821;44.800;10.326;2023-03-01T07:03:14;39.97;;;18.02;;
32347;SDS011;18821;44.800;10.326;2023-03-01T07:05:40;33.42;;;16.92;;
32347;SDS011;18821;44.800;10.326;2023-03-01T07:08:07;33.25;;;17.65;;
32347;SDS011;18821;44.800;10.326;2023-03-01T07:10:34;39.85;;;19.75;;
32347;SDS011;18821;44.800;10.326;2023-03-01T07:13:00;35.40;;;18.95;;
32347;SDS011;18821;44.800;10.326;2023-03-01T07:15:26;33.10;;;17.70;;
32347;SDS011;18821;44.800;10.326;2023-03-01T07:17:53;33.40;;;17.17;;
32347;SDS011;18821;44.800;10.326;2023-03-01T07:20:19;28.17;;;15.30;;
32347;SDS011;18821;44.800;10.326;2023-03-01T07:22:53;36.40;;;17.05;;
32347;SDS011;18821;44.800;10.326;2023-03-01T07:25:20;51.42;;;19.15;;
32347;SDS011;18821;44.800;10.326;2023-03-01T07:27:52;37.50;;;17.15;;
32347;SDS011;18821;44.800;10.326;2023-03-01T07:30:20;35.67;;;16.25;;
32347;SDS011;18821;44.800;10.326;2023-03-01T07:32:46;39.10;;;14.88;;
32347;SDS011;18821;44.800;10.326;2023-03-01T07:35:13;32.28;;;16.42;;
32347;SDS011;18821;44.800;10.326;2023-03-01T07:37:40;33.78;;;16.80;;
32347;SDS011;18821;44.800;10.326;2023-03-01T07:40:06;32.08;;;16.00;;
32347;SDS011;18821;44.800;10.326;2023-03-01T07:42:32;32.05;;;16.23;;
32347;SDS011;18821;44.800;10.326;2023-03-01T07:44:58;34.60;;;17.15;;
32347;SDS011;18821;44.800;10.326;2023-03-01T07:47:24;34.08;;;17.00;;
32347;SDS011;18821;44.800;10.326;2023-03-01T07:49:50;32.42;;;15.65;;
32347;SDS011;18821;44.800;10.326;2023-03-01T07:52:16;27.05;;;15.02;;
32347;SDS011;18821;44.800;10.326;2023-03-01T07:54:43;25.10;;;14.32;;
32347;SDS011;18821;44.800;10.326;2023-03-01T07:57:09;26.83;;;14.50;;
32347;SDS011;18821;44.800;10.326;2023-03-01T07:59:36;29.60;;;14.73;;
32347;SDS011;18821;44.800;10.326;2023-03-01T08:02:01;35.83;;;15.35;;
32347;SDS011;18821;44.800;10.326;2023-03-01T08:04:27;31.40;;;15.77;;
32347;SDS011;18821;44.800;10.326;2023-03-01T08:06:54;29.98;;;15.18;;
32347;SDS011;18821;44.800;10.326;2023-03-01T08:09:20;28.10;;;15.18;;
32347;SDS011;18821;44.800;10.326;2023-03-01T08:11:47;27.98;;;14.02;;
32347;SDS011;18821;44.800;10.326;2023-03-01T08:14:13;33.28;;;15.10;;
32347;SDS011;18821;44.800;10.326;2023-03-01T08:16:39;28.90;;;14.38;;
32347;SDS011;18821;44.800;10.326;2023-03-01T08:19:05;29.63;;;14.80;;
32347;SDS011;18821;44.800;10.326;2023-03-01T08:21:36;25.83;;;14.73;;
32347;SDS011;18821;44.800;10.326;2023-03-01T08:24:03;25.02;;;14.57;;
32347;SDS011;18821;44.800;10.326;2023-03-01T08:26:31;29.77;;;14.65;;
32347;SDS011;18821;44.800;10.326;2023-03-01T08:28:59;32.58;;;15.70;;
32347;SDS011;18821;44.800;10.326;2023-03-01T08:31:32;31.20;;;15.80;;
32347;SDS011;18821;44.800;10.326;2023-03-01T08:34:02;28.77;;;14.50;;
32347;SDS011;18821;44.800;10.326;2023-03-01T08:36:35;28.20;;;13.77;;
32347;SDS011;18821;44.800;10.326;2023-03-01T08:39:03;30.20;;;14.02;;
32347;SDS011;18821;44.800;10.326;2023-03-01T08:41:30;28.00;;;14.32;;
32347;SDS011;18821;44.800;10.326;2023-03-01T08:43:57;29.55;;;14.52;;
32347;SDS011;18821;44.800;10.326;2023-03-01T08:46:27;27.98;;;13.93;;
32347;SDS011;18821;44.800;10.326;2023-03-01T08:48:54;30.45;;;14.45;;
32347;SDS011;18821;44.800;10.326;2023-03-01T08:51:20;27.08;;;15.18;;
32347;SDS011;18821;44.800;10.326;2023-03-01T08:53:47;33.15;;;15.02;;
32347;SDS011;18821;44.800;10.326;2023-03-01T08:56:14;30.48;;;14.60;;
32347;SDS011;18821;44.800;10.326;2023-03-01T08:58:43;28.95;;;14.98;;
32347;SDS011;18821;44.800;10.326;2023-03-01T09:01:11;31.73;;;14.75;;
32347;SDS011;18821;44.800;10.326;2023-03-01T09:03:38;29.92;;;15.48;;
32347;SDS011;18821;44.800;10.326;2023-03-01T09:06:05;25.83;;;14.82;;
32347;SDS011;18821;44.800;10.326;2023-03-01T09:08:36;27.58;;;14.48;;
32347;SDS011;18821;44.800;10.326;2023-03-01T09:11:04;32.05;;;14.82;;
32347;SDS011;18821;44.800;10.326;2023-03-01T09:13:31;47.78;;;21.55;;
32347;SDS011;18821;44.800;10.326;2023-03-01T09:16:00;28.50;;;14.23;;
32347;SDS011;18821;44.800;10.326;2023-03-01T09:18:28;27.95;;;14.38;;
32347;SDS011;18821;44.800;10.326;2023-03-01T09:21:04;27.88;;;14.20;;
32347;SDS011;18821;44.800;10.326;2023-03-01T09:23:36;26.45;;;14.20;;
32347;SDS011;18821;44.800;10.326;2023-03-01T09:26:07;24.92;;;13.30;;
32347;SDS011;18821;44.800;10.326;2023-03-01T09:28:35;30.25;;;15.05;;
32347;SDS011;18821;44.800;10.326;2023-03-01T09:31:07;25.30;;;14.27;;
32347;SDS011;18821;44.800;10.326;2023-03-01T09:33:33;26.25;;;14.30;;
32347;SDS011;18821;44.800;10.326;2023-03-01T09:36:01;31.08;;;13.55;;
32347;SDS011;18821;44.800;10.326;2023-03-01T09:38:32;35.78;;;15.27;;
32347;SDS011;18821;44.800;10.326;2023-03-01T09:40:59;22.98;;;13.23;;
32347;SDS011;18821;44.800;10.326;2023-03-01T09:46:11;29.88;;;13.70;;
32347;SDS011;18821;44.800;10.326;2023-03-01T09:48:43;26.85;;;13.95;;
32347;SDS011;18821;44.800;10.326;2023-03-01T09:51:27;26.35;;;13.80;;
32347;SDS011;18821;44.800;10.326;2023-03-01T09:53:56;26.38;;;13.63;;
32347;SDS011;18821;44.800;10.326;2023-03-01T09:56:40;26.98;;;13.75;;
32347;SDS011;18821;44.800;10.326;2023-03-01T10:05:04;25.50;;;13.27;;
32347;SDS011;18821;44.800;10.326;2023-03-01T10:13:03;26.75;;;13.52;;
32347;SDS011;18821;44.800;10.326;2023-03-01T10:15:41;25.30;;;13.73;;
32347;SDS011;18821;44.800;10.326;2023-03-01T10:18:14;25.02;;;12.45;;
32347;SDS011;18821;44.800;10.326;2023-03-01T10:23:31;31.52;;;16.05;;
32347;SDS011;18821;44.800;10.326;2023-03-01T10:29:14;22.70;;;12.00;;
32347;SDS011;18821;44.800;10.326;2023-03-01T10:31:41;19.92;;;10.73;;
32347;SDS011;18821;44.800;10.326;2023-03-01T10:34:16;23.65;;;10.77;;
32347;SDS011;18821;44.800;10.326;2023-03-01T10:36:55;24.17;;;12.10;;
32347;SDS011;18821;44.800;10.326;2023-03-01T10:39:26;23.65;;;12.00;;
32347;SDS011;18821;44.800;10.326;2023-03-01T10:44:40;26.35;;;11.00;;
32347;SDS011;18821;44.800;10.326;2023-03-01T10:47:32;20.92;;;10.77;;
32347;SDS011;18821;44.800;10.326;2023-03-01T10:50:09;19.60;;;10.40;;
32347;SDS011;18821;44.800;10.326;2023-03-01T10:52:55;25.10;;;10.93;;
32347;SDS011;18821;44.800;10.326;2023-03-01T11:00:45;20.75;;;10.13;;
32347;SDS011;18821;44.800;10.326;2023-03-01T11:03:14;19.98;;;10.65;;
32347;SDS011;18821;44.800;10.326;2023-03-01T11:06:05;20.73;;;10.15;;
32347;SDS011;18821;44.800;10.326;2023-03-01T11:08:46;20.33;;;10.48;;
32347;SDS011;18821;44.800;10.326;2023-03-01T11:11:25;25.38;;;11.30;;
32347;SDS011;18821;44.800;10.326;2023-03-01T11:16:32;22.05;;;10.45;;
32347;SDS011;18821;44.800;10.326;2023-03-01T11:21:39;27.23;;;12.18;;
32347;SDS011;18821;44.800;10.326;2023-03-01T11:24:40;19.15;;;10.25;;
32347;SDS011;18821;44.800;10.326;2023-03-01T11:27:15;22.42;;;10.10;;
32347;SDS011;18821;44.800;10.326;2023-03-01T11:29:46;20.38;;;11.20;;
32347;SDS011;18821;44.800;10.326;2023-03-01T11:32:32;23.17;;;11.65;;
32347;SDS011;18821;44.800;10.326;2023-03-01T11:35:09;18.13;;;10.40;;
32347;SDS011;18821;44.800;10.326;2023-03-01T11:40:25;22.73;;;11.90;;
32347;SDS011;18821;44.800;10.326;2023-03-01T11:50:54;32.40;;;12.40;;
32347;SDS011;18821;44.800;10.326;2023-03-01T11:56:31;17.73;;;10.77;;
32347;SDS011;18821;44.800;10.326;2023-03-01T12:01:59;27.10;;;13.45;;
32347;SDS011;18821;44.800;10.326;2023-03-01T12:17:32;26.73;;;13.93;;
32347;SDS011;18821;44.800;10.326;2023-03-01T12:25:55;26.65;;;14.35;;
32347;SDS011;18821;44.800;10.326;2023-03-01T12:34:24;33.03;;;16.17;;
32347;SDS011;18821;44.800;10.326;2023-03-01T12:40:11;32.78;;;16.10;;
32347;SDS011;18821;44.800;10.326;2023-03-01T12:48:31;32.72;;;16.33;;
32347;SDS011;18821;44.800;10.326;2023-03-01T12:51:19;35.17;;;15.98;;
32347;SDS011;18821;44.800;10.326;2023-03-01T12:53:50;33.70;;;16.38;;
32347;SDS011;18821;44.800;10.326;2023-03-01T12:56:22;31.30;;;15.80;;
32347;SDS011;18821;44.800;10.326;2023-03-01T12:58:59;34.22;;;16.98;;
32347;SDS011;18821;44.800;10.326;2023-03-01T13:17:59;29.73;;;16.23;;
32347;SDS011;18821;44.800;10.326;2023-03-01T13:20:34;31.02;;;15.68;;
32347;SDS011;18821;44.800;10.326;2023-03-01T13:26:07;34.85;;;16.33;;
32347;SDS011;18821;44.800;10.326;2023-03-01T13:28:44;30.73;;;15.38;;
32347;SDS011;18821;44.800;10.326;2023-03-01T13:33:45;35.17;;;17.25;;
32347;SDS011;18821;44.800;10.326;2023-03-01T13:38:59;34.30;;;17.00;;
32347;SDS011;18821;44.800;10.326;2023-03-01T13:44:38;31.23;;;16.58;;
32347;SDS011;18821;44.800;10.326;2023-03-01T13:55:06;27.60;;;15.05;;
32347;SDS011;18821;44.800;10.326;2023-03-01T13:57:40;30.65;;;15.50;;
32347;SDS011;18821;44.800;10.326;2023-03-01T14:05:27;38.33;;;17.00;;
32347;SDS011;18821;44.800;10.326;2023-03-01T14:07:54;33.92;;;17.10;;
32347;SDS011;18821;44.800;10.326;2023-03-01T14:10:20;39.15;;;18.45;;
32347;SDS011;18821;44.800;10.326;2023-03-01T14:13:06;34.58;;;16.75;;
32347;SDS011;18821;44.800;10.326;2023-03-01T14:16:02;35.28;;;17.98;;
32347;SDS011;18821;44.800;10.326;2023-03-01T14:18:39;32.38;;;17.20;;
32347;SDS011;18821;44.800;10.326;2023-03-01T14:21:31;33.43;;;17.70;;
32347;SDS011;18821;44.800;10.326;2023-03-01T14:23:57;33.45;;;17.08;;
32347;SDS011;18821;44.800;10.326;2023-03-01T14:26:24;33.92;;;18.20;;
32347;SDS011;18821;44.800;10.326;2023-03-01T14:28:50;31.80;;;16.70;;
32347;SDS011;18821;44.800;10.326;2023-03-01T14:31:50;33.20;;;17.05;;
32347;SDS011;18821;44.800;10.326;2023-03-01T14:34:18;33.42;;;16.48;;
32347;SDS011;18821;44.800;10.326;2023-03-01T14:36:49;32.40;;;15.90;;
32347;SDS011;18821;44.800;10.326;2023-03-01T14:39:19;33.97;;;17.52;;
32347;SDS011;18821;44.800;10.326;2023-03-01T14:41:50;34.50;;;17.33;;
32347;SDS011;18821;44.800;10.326;2023-03-01T14:44:21;33.85;;;17.65;;
32347;SDS011;18821;44.800;10.326;2023-03-01T14:46:53;33.75;;;17.63;;
32347;SDS011;18821;44.800;10.326;2023-03-01T14:49:22;34.70;;;17.20;;
32347;SDS011;18821;44.800;10.326;2023-03-01T14:51:58;31.17;;;15.93;;
32347;SDS011;18821;44.800;10.326;2023-03-01T14:54:41;34.75;;;17.42;;
32347;SDS011;18821;44.800;10.326;2023-03-01T14:57:13;33.80;;;16.55;;
32347;SDS011;18821;44.800;10.326;2023-03-01T14:59:44;33.30;;;17.75;;
32347;SDS011;18821;44.800;10.326;2023-03-01T15:02:17;35.75;;;17.73;;
32347;SDS011;18821;44.800;10.326;2023-03-01T15:04:46;32.70;;;16.48;;
32347;SDS011;18821;44.800;10.326;2023-03-01T15:07:15;35.08;;;18.08;;
32347;SDS011;18821;44.800;10.326;2023-03-01T15:09:41;37.17;;;17.27;;
32347;SDS011;18821;44.800;10.326;2023-03-01T15:14:52;33.60;;;17.67;;
32347;SDS011;18821;44.800;10.326;2023-03-01T15:17:32;31.50;;;16.85;;
32347;SDS011;18821;44.800;10.326;2023-03-01T15:20:00;32.85;;;15.98;;
32347;SDS011;18821;44.800;10.326;2023-03-01T15:22:29;34.15;;;17.58;;
32347;SDS011;18821;44.800;10.326;2023-03-01T15:24:55;35.35;;;18.60;;
32347;SDS011;18821;44.800;10.326;2023-03-01T15:27:22;37.53;;;19.23;;
32347;SDS011;18821;44.800;10.326;2023-03-01T15:29:52;34.40;;;18.52;;
32347;SDS011;18821;44.800;10.326;2023-03-01T15:34:52;36.70;;;17.38;;
32347;SDS011;18821;44.800;10.326;2023-03-01T15:40:24;33.83;;;17.30;;
32347;SDS011;18821;44.800;10.326;2023-03-01T15:42:57;33.03;;;17.70;;
32347;SDS011;18821;44.800;10.326;2023-03-01T15:45:28;35.88;;;17.92;;
32347;SDS011;18821;44.800;10.326;2023-03-01T15:48:03;33.88;;;17.10;;
32347;SDS011;18821;44.800;10.326;2023-03-01T15:50:32;34.50;;;17.52;;
32347;SDS011;18821;44.800;10.326;2023-03-01T15:53:00;33.90;;;18.40;;
32347;SDS011;18821;44.800;10.326;2023-03-01T15:55:31;40.25;;;19.63;;
32347;SDS011;18821;44.800;10.326;2023-03-01T15:57:59;40.28;;;19.20;;
32347;SDS011;18821;44.800;10.326;2023-03-01T16:00:28;35.45;;;19.15;;
32347;SDS011;18821;44.800;10.326;2023-03-01T16:02:54;42.90;;;19.17;;
32347;SDS011;18821;44.800;10.326;2023-03-01T16:05:25;37.35;;;19.02;;
32347;SDS011;18821;44.800;10.326;2023-03-01T16:07:53;41.25;;;19.17;;
32347;SDS011;18821;44.800;10.326;2023-03-01T16:10:20;40.53;;;19.88;;
32347;SDS011;18821;44.800;10.326;2023-03-01T16:12:46;37.00;;;18.90;;
32347;SDS011;18821;44.800;10.326;2023-03-01T16:15:17;35.33;;;19.30;;
32347;SDS011;18821;44.800;10.326;2023-03-01T16:17:52;36.78;;;18.48;;
32347;SDS011;18821;44.800;10.326;2023-03-01T16:20:22;36.63;;;19.67;;
32347;SDS011;18821;44.800;10.326;2023-03-01T16:22:48;36.88;;;19.90;;
32347;SDS011;18821;44.800;10.326;2023-03-01T16:25:15;40.45;;;19.58;;
32347;SDS011;18821;44.800;10.326;2023-03-01T16:27:43;40.85;;;20.00;;
32347;SDS011;18821;44.800;10.326;2023-03-01T16:30:11;41.75;;;20.25;;
32347;SDS011;18821;44.800;10.326;2023-03-01T16:32:43;39.10;;;19.00;;
32347;SDS011;18821;44.800;10.326;2023-03-01T16:35:10;37.00;;;18.58;;
32347;SDS011;18821;44.800;10.326;2023-03-01T16:37:38;39.90;;;20.33;;
32347;SDS011;18821;44.800;10.326;2023-03-01T16:40:05;39.22;;;18.70;;
32347;SDS011;18821;44.800;10.326;2023-03-01T16:42:42;39.92;;;19.15;;
32347;SDS011;18821;44.800;10.326;2023-03-01T16:45:08;33.70;;;17.05;;
32347;SDS011;18821;44.800;10.326;2023-03-01T16:47:34;34.55;;;17.95;;
32347;SDS011;18821;44.800;10.326;2023-03-01T16:50:00;37.17;;;18.35;;
32347;SDS011;18821;44.800;10.326;2023-03-01T16:52:27;30.48;;;17.23;;
32347;SDS011;18821;44.800;10.326;2023-03-01T16:54:53;35.08;;;17.95;;